Cmb Kristine — VRJF4 — position and weather

sailwx.info

Track history (hours):
 
Tides and Currents Weather Stations Pressure Air Temp Water Temp Dewpoint Dewpoint Depression Visibility Wind Speed Wind Dir Waves Ship Positions

Cmb Kristine

Last reported at 2017-Nov-30 23:47 UTC. Time now 2017-Dec-13 15:01 UTC.
Position N 35°57' W 005°36'.
Warning: this ship's position is 12 days out of date.

Length 180 m; draft 10.3 m.

Type: Cargo ship. MMSI: 477346300.

Date/timePositionNaut miles runAvg speedWind from/ knotsBaromVisibWave heightAir tempDewpointWater temp
2017-Nov-30 23:47N 35°57' W 005°36'310.7
2017-Nov-30 23:30N 35°58' W 005°32'510.3
2017-Nov-30 23:00N 35°60' W 005°26'5 9.6
2017-Nov-30 22:30N 36°01' W 005°20'5 9.5
2017-Nov-30 21:56N 36°03' W 005°14'510.5
2017-Nov-30 21:30N 36°04' W 005°08'  
2017-Nov-27 06:36N 36°35' E 014°01'1 8.6
2017-Nov-27 06:29N 36°35' E 014°02'4 8.4
2017-Nov-27 06:00N 36°34' E 014°07'4 8.7
2017-Nov-27 05:30N 36°33' E 014°12'5 9.1
2017-Nov-27 05:00N 36°31' E 014°17'5 9.3
2017-Nov-27 04:30N 36°30' E 014°23'4 8.9
2017-Nov-27 04:00N 36°29' E 014°28'4 8.7
2017-Nov-27 03:30N 36°27' E 014°33'5 9.1
2017-Nov-27 03:00N 36°27' E 014°39'43510.9
2017-Nov-25 10:57N 36°48' E 023°40'612.4
2017-Nov-25 10:29N 36°53' E 023°45'612.1
2017-Nov-25 10:00N 36°58' E 023°49'612.1
2017-Nov-25 09:30N 37°02' E 023°54'612.0
2017-Nov-25 09:00N 37°07' E 023°59'612.0
2017-Nov-25 08:30N 37°12' E 024°03'612.0
2017-Nov-25 08:00N 37°16' E 024°08'611.9
2017-Nov-25 07:30N 37°21' E 024°13'611.9
2017-Nov-25 07:00N 37°26' E 024°17'612.2
2017-Nov-25 06:30N 37°30' E 024°22'612.2
2017-Nov-25 06:00N 37°35' E 024°27'611.8
2017-Nov-25 05:30N 37°40' E 024°31'612.6
2017-Nov-25 05:00N 37°46' E 024°33'612.3
2017-Nov-25 04:30N 37°52' E 024°35'611.8
2017-Nov-25 04:00N 37°58' E 024°38'1311.6
2017-Nov-25 02:53N 38°09' E 024°45'611.6
2017-Nov-25 02:24N 38°15' E 024°48'711.9
2017-Nov-25 01:48N 38°21' E 024°52'411.8
2017-Nov-25 01:29N 38°24' E 024°54'1611.9
2017-Nov-25 00:06N 38°40' E 025°01'1311.2
2017-Nov-24 22:56N 38°52' E 025°07'  
Track history (hours):
 
Tides and Currents Weather Stations Pressure Air Temp Water Temp Dewpoint Dewpoint Depression Visibility Wind Speed Wind Dir Waves Ship Positions

Cmb Kristine

Last reported at 2017-Nov-30 23:47 UTC. Time now 2017-Dec-13 15:01 UTC.
Position N 35°57' W 005°36'.
Warning: this ship's position is 12 days out of date.

Length 180 m; draft 10.3 m.

Type: Cargo ship. MMSI: 477346300.

Date/timePositionNaut miles runAvg speedWind from/ knotsBaromVisibWave heightAir tempDewpointWater temp
2017-Nov-30 23:47N 35°57' W 005°36'310.7
2017-Nov-30 23:30N 35°58' W 005°32'510.3
2017-Nov-30 23:00N 35°60' W 005°26'5 9.6
2017-Nov-30 22:30N 36°01' W 005°20'5 9.5
2017-Nov-30 21:56N 36°03' W 005°14'510.5
2017-Nov-30 21:30N 36°04' W 005°08'  
2017-Nov-27 06:36N 36°35' E 014°01'1 8.6
2017-Nov-27 06:29N 36°35' E 014°02'4 8.4
2017-Nov-27 06:00N 36°34' E 014°07'4 8.7
2017-Nov-27 05:30N 36°33' E 014°12'5 9.1
2017-Nov-27 05:00N 36°31' E 014°17'5 9.3
2017-Nov-27 04:30N 36°30' E 014°23'4 8.9
2017-Nov-27 04:00N 36°29' E 014°28'4 8.7
2017-Nov-27 03:30N 36°27' E 014°33'5 9.1
2017-Nov-27 03:00N 36°27' E 014°39'43510.9
2017-Nov-25 10:57N 36°48' E 023°40'612.4
2017-Nov-25 10:29N 36°53' E 023°45'612.1
2017-Nov-25 10:00N 36°58' E 023°49'612.1
2017-Nov-25 09:30N 37°02' E 023°54'612.0
2017-Nov-25 09:00N 37°07' E 023°59'612.0
2017-Nov-25 08:30N 37°12' E 024°03'612.0
2017-Nov-25 08:00N 37°16' E 024°08'611.9
2017-Nov-25 07:30N 37°21' E 024°13'611.9
2017-Nov-25 07:00N 37°26' E 024°17'612.2
2017-Nov-25 06:30N 37°30' E 024°22'612.2
2017-Nov-25 06:00N 37°35' E 024°27'611.8
2017-Nov-25 05:30N 37°40' E 024°31'612.6
2017-Nov-25 05:00N 37°46' E 024°33'612.3
2017-Nov-25 04:30N 37°52' E 024°35'611.8
2017-Nov-25 04:00N 37°58' E 024°38'1311.6
2017-Nov-25 02:53N 38°09' E 024°45'611.6
2017-Nov-25 02:24N 38°15' E 024°48'711.9
2017-Nov-25 01:48N 38°21' E 024°52'411.8
2017-Nov-25 01:29N 38°24' E 024°54'1611.9
2017-Nov-25 00:06N 38°40' E 025°01'1311.2
2017-Nov-24 22:56N 38°52' E 025°07'  

Dump ship's entire track history